New Century — V7GF8 — position and weather

sailwx.info

Track history (hours):
 
Tides and Currents Weather Stations Pressure Air Temp Water Temp Dewpoint Dewpoint Depression Visibility Wind Speed Wind Dir Waves Ship Positions

New Century

Last reported at 2015-Nov-27 05:24 UTC. Time now 2016-May-01 17:24 UTC.
Position N 01°10' E 103°48'.
Warning: this ship's position is months out of date.

Length 228 m; draft 8.4 m.

Type: Tanker. MMSI: 538002085.

Date/timePositionNaut miles runAvg speedWind from/ knotsBaromVisibWave heightAir tempDewpointWater temp
2015-Nov-27 05:24N 01°10' E 103°48'4 4.0
2015-Nov-27 04:29N 01°14' E 103°48'0 0.0
2015-Nov-27 03:17N 01°14' E 103°48'0 0.1
2015-Nov-27 01:32N 01°14' E 103°48'0 0.1
2015-Nov-27 00:29N 01°14' E 103°48'0 0.1
2015-Nov-26 23:32N 01°14' E 103°48'0 0.0
2015-Nov-26 22:32N 01°14' E 103°48'0 0.0
2015-Nov-26 21:32N 01°14' E 103°48'0 0.0
2015-Nov-26 18:29N 01°14' E 103°48'0 0.1
2015-Nov-26 17:23N 01°14' E 103°48'0 0.0
2015-Nov-26 15:17N 01°14' E 103°48'0 0.0
2015-Nov-26 14:32N 01°14' E 103°48'0 0.1
2015-Nov-26 13:11N 01°14' E 103°48'0 0.2
2015-Nov-26 12:29N 01°14' E 103°48'0 0.1
2015-Nov-26 11:29N 01°14' E 103°48'0 0.1
2015-Nov-26 10:29N 01°14' E 103°48'0 0.0
2015-Nov-26 09:29N 01°14' E 103°48'0 0.1
2015-Nov-26 08:32N 01°14' E 103°48'3 2.7
2015-Nov-26 07:33N 01°12' E 103°50'1 1.5
2015-Nov-26 06:33N 01°11' E 103°48'1 0.0
2015-Nov-25 02:21N 01°12' E 103°48'2 2.1
2015-Nov-25 01:33N 01°12' E 103°49'0 0.2
2015-Nov-24 23:30N 01°13' E 103°49'7 7.6
2015-Nov-24 22:33N 01°14' E 103°42'4 0.1
2015-Nov-23 08:30N 01°16' E 103°45'4 3.9
2015-Nov-23 07:25N 01°13' E 103°49'0 0.1
2015-Nov-23 06:16N 01°13' E 103°49'0 0.0
2015-Nov-23 04:07N 01°13' E 103°49'0 0.1
2015-Nov-23 03:31N 01°13' E 103°49'0 0.1
2015-Nov-23 02:07N 01°13' E 103°48'0 0.1
2015-Nov-23 00:28N 01°13' E 103°49'0 0.1
2015-Nov-22 23:33N 01°13' E 103°48'0 0.0
2015-Nov-22 20:24N 01°13' E 103°48'0 0.1
2015-Nov-22 19:24N 01°13' E 103°48'0 0.1
2015-Nov-22 18:27N 01°13' E 103°48'0 0.1
2015-Nov-22 17:30N 01°13' E 103°49'0 0.0
2015-Nov-22 16:24N 01°13' E 103°49'0 0.0
2015-Nov-22 14:09N 01°13' E 103°49'0 0.1
2015-Nov-22 13:06N 01°13' E 103°48'0 0.1
2015-Nov-22 12:30N 01°13' E 103°48'0 0.1
2015-Nov-22 11:33N 01°13' E 103°48'0 0.0
2015-Nov-22 10:18N 01°13' E 103°48'0 0.0
2015-Nov-22 08:24N 01°13' E 103°48'0 0.4
2015-Nov-22 07:34N 01°13' E 103°48'7 6.2
2015-Nov-22 06:27N 01°13' E 103°41'  
Track history (hours):
 
Tides and Currents Weather Stations Pressure Air Temp Water Temp Dewpoint Dewpoint Depression Visibility Wind Speed Wind Dir Waves Ship Positions

New Century

Last reported at 2015-Nov-27 05:24 UTC. Time now 2016-May-01 17:24 UTC.
Position N 01°10' E 103°48'.
Warning: this ship's position is months out of date.

Length 228 m; draft 8.4 m.

Type: Tanker. MMSI: 538002085.

Date/timePositionNaut miles runAvg speedWind from/ knotsBaromVisibWave heightAir tempDewpointWater temp
2015-Nov-27 05:24N 01°10' E 103°48'4 4.0
2015-Nov-27 04:29N 01°14' E 103°48'0 0.0
2015-Nov-27 03:17N 01°14' E 103°48'0 0.1
2015-Nov-27 01:32N 01°14' E 103°48'0 0.1
2015-Nov-27 00:29N 01°14' E 103°48'0 0.1
2015-Nov-26 23:32N 01°14' E 103°48'0 0.0
2015-Nov-26 22:32N 01°14' E 103°48'0 0.0
2015-Nov-26 21:32N 01°14' E 103°48'0 0.0
2015-Nov-26 18:29N 01°14' E 103°48'0 0.1
2015-Nov-26 17:23N 01°14' E 103°48'0 0.0
2015-Nov-26 15:17N 01°14' E 103°48'0 0.0
2015-Nov-26 14:32N 01°14' E 103°48'0 0.1
2015-Nov-26 13:11N 01°14' E 103°48'0 0.2
2015-Nov-26 12:29N 01°14' E 103°48'0 0.1
2015-Nov-26 11:29N 01°14' E 103°48'0 0.1
2015-Nov-26 10:29N 01°14' E 103°48'0 0.0
2015-Nov-26 09:29N 01°14' E 103°48'0 0.1
2015-Nov-26 08:32N 01°14' E 103°48'3 2.7
2015-Nov-26 07:33N 01°12' E 103°50'1 1.5
2015-Nov-26 06:33N 01°11' E 103°48'1 0.0
2015-Nov-25 02:21N 01°12' E 103°48'2 2.1
2015-Nov-25 01:33N 01°12' E 103°49'0 0.2
2015-Nov-24 23:30N 01°13' E 103°49'7 7.6
2015-Nov-24 22:33N 01°14' E 103°42'4 0.1
2015-Nov-23 08:30N 01°16' E 103°45'4 3.9
2015-Nov-23 07:25N 01°13' E 103°49'0 0.1
2015-Nov-23 06:16N 01°13' E 103°49'0 0.0
2015-Nov-23 04:07N 01°13' E 103°49'0 0.1
2015-Nov-23 03:31N 01°13' E 103°49'0 0.1
2015-Nov-23 02:07N 01°13' E 103°48'0 0.1
2015-Nov-23 00:28N 01°13' E 103°49'0 0.1
2015-Nov-22 23:33N 01°13' E 103°48'0 0.0
2015-Nov-22 20:24N 01°13' E 103°48'0 0.1
2015-Nov-22 19:24N 01°13' E 103°48'0 0.1
2015-Nov-22 18:27N 01°13' E 103°48'0 0.1
2015-Nov-22 17:30N 01°13' E 103°49'0 0.0
2015-Nov-22 16:24N 01°13' E 103°49'0 0.0
2015-Nov-22 14:09N 01°13' E 103°49'0 0.1
2015-Nov-22 13:06N 01°13' E 103°48'0 0.1
2015-Nov-22 12:30N 01°13' E 103°48'0 0.1
2015-Nov-22 11:33N 01°13' E 103°48'0 0.0
2015-Nov-22 10:18N 01°13' E 103°48'0 0.0
2015-Nov-22 08:24N 01°13' E 103°48'0 0.4
2015-Nov-22 07:34N 01°13' E 103°48'7 6.2
2015-Nov-22 06:27N 01°13' E 103°41'  

Dump ship's entire track history